Hlavní strana
METAR-TAF:

METAR-TAF

Letiště :

Örnsköldsvik, Švédsko

zeměpisná šířka: 63-24N, zeměpisná délka: 018-58E, výška: 103 m

Aktuální stav počasí

Zpráva byla vytvořena před 21 minutami, v 04:20 UTC
Severní vítr 3 kt, proměnlivý mezi severozápadním a východoseverovýchodním
Teplota -2°C
Vlhkost vzduchu 93%
Tlak 1022 hPa
Viditelnost 10 km a více

METAR: ESNO 180420Z AUTO 36003KT 310V060 9999 OVC005/// M02/M03 Q1022

Čas: 05:41 (04:41 UTC)

Předpověď počasí

Zpráva byla vytvořena před 11 minutami, v 04:30 UTC
Předpověď platná od 18 v 05 UTC do 18 v 10 UTC
Severní vítr 4 kt
Viditelnost 10 km a více
Zataženo ve výšce 500 ft
Dočasný
od 18 v 05 UTC do 18 v 10 UTC
Polojasno ve výšce 500 ft
Oblačno až skoro zataženo ve výšce 1500 ft

TAF: ESNO 180430Z 1805/1810 35004KT 9999 OVC005 TEMPO 1805/1810 SCT005 BKN015

Stav a předpovědi počasí z více než 4 000 letišť (zprávy METAR a TAF).

Červené a žluté tečky na mapě představují dostupné meteorologické stanice.

Když kurzor umístíte na tečku, zobrazí se název stanice.

Pak kliknutím zobrazíte stav a předpověď počasí.

Chcete-li změnit mapu, kliknutím na zelené tlačítko se znaménkem +mapu přiblížíte, kliknutím na zelené tlačítko se znaménkem – mapu oddálíte a kliknutím na zelené šipky přejdete na sousední mapy.


METAR-TAF: